createdAt,value
2018-12-11T00:00:43.953Z,7.63
2018-12-11T00:03:11.478Z,15.27
2018-12-11T00:05:38.882Z,10.63
2018-12-11T00:08:06.297Z,9.57
2018-12-11T00:10:33.690Z,10.37
2018-12-11T00:13:01.076Z,12.63
2018-12-11T00:15:28.541Z,11.33
2018-12-11T00:17:55.958Z,16.93
2018-12-11T00:20:23.398Z,17.00
2018-12-11T00:22:50.796Z,20.23
2018-12-11T00:25:18.185Z,6.40
2018-12-11T00:27:45.589Z,12.63
2018-12-11T00:30:13.042Z,9.43
2018-12-11T00:32:40.495Z,14.13
2018-12-11T00:35:07.968Z,13.60
2018-12-11T00:37:35.377Z,11.70
2018-12-11T00:40:02.910Z,11.27
2018-12-11T00:42:30.660Z,9.10
2018-12-11T00:44:58.080Z,12.90
2018-12-11T00:47:25.509Z,7.93
2018-12-11T00:49:52.936Z,13.80
2018-12-11T00:52:20.421Z,14.10
2018-12-11T00:54:47.824Z,9.50
2018-12-11T00:57:15.203Z,14.73
2018-12-11T00:59:42.605Z,14.70
2018-12-11T01:02:10.009Z,15.90
2018-12-11T01:04:37.438Z,14.57
2018-12-11T01:07:04.894Z,9.17
2018-12-11T01:09:32.357Z,10.40
2018-12-11T01:11:59.729Z,14.03
2018-12-11T01:14:27.175Z,15.10
2018-12-11T01:16:54.575Z,14.37
2018-12-11T01:19:21.997Z,10.33
2018-12-11T01:21:49.394Z,11.80
2018-12-11T01:24:16.778Z,8.93
2018-12-11T01:26:44.170Z,7.60
2018-12-11T01:29:11.605Z,6.67
2018-12-11T01:31:39.003Z,11.37
2018-12-11T01:34:06.386Z,11.53
2018-12-11T01:36:33.776Z,8.80
2018-12-11T01:39:01.164Z,12.00
2018-12-11T01:41:28.552Z,6.70
2018-12-11T01:43:55.934Z,9.50
2018-12-11T01:46:23.368Z,9.70
2018-12-11T01:48:50.747Z,9.30
2018-12-11T01:51:18.150Z,10.90
2018-12-11T01:53:45.549Z,15.33
2018-12-11T01:56:12.960Z,10.67
2018-12-11T01:58:40.418Z,10.47
2018-12-11T02:01:07.819Z,12.43
2018-12-11T02:03:35.214Z,8.63
2018-12-11T02:06:02.614Z,9.00
2018-12-11T02:08:30.009Z,10.43
2018-12-11T02:10:57.521Z,14.33
2018-12-11T02:13:25.007Z,10.50
2018-12-11T02:15:52.453Z,12.57
2018-12-11T02:18:19.841Z,9.90
2018-12-11T02:20:47.229Z,9.90
2018-12-11T02:23:14.621Z,15.83
2018-12-11T02:25:42.115Z,13.50
2018-12-11T02:28:09.565Z,11.80
2018-12-11T02:30:36.976Z,7.03
2018-12-11T02:33:04.448Z,20.00
2018-12-11T02:35:31.913Z,12.97
2018-12-11T02:37:59.290Z,12.60
2018-12-11T02:40:26.689Z,9.10
2018-12-11T02:42:54.083Z,8.07
2018-12-11T02:45:21.541Z,8.87
2018-12-11T02:47:48.949Z,14.80
2018-12-11T02:50:16.336Z,12.50
2018-12-11T02:52:43.734Z,10.90
2018-12-11T02:55:11.139Z,8.00
2018-12-11T02:57:38.605Z,11.53
2018-12-11T03:00:07.307Z,9.37
2018-12-11T03:02:34.765Z,10.73
2018-12-11T03:05:02.158Z,10.93
2018-12-11T03:07:29.640Z,8.87
2018-12-11T03:09:57.041Z,11.73
2018-12-11T03:12:24.434Z,10.30
2018-12-11T03:14:51.835Z,11.00
2018-12-11T03:17:19.392Z,12.47
2018-12-11T03:19:46.879Z,9.73
2018-12-11T03:22:14.293Z,8.40
2018-12-11T03:24:41.679Z,14.07
2018-12-11T03:27:09.065Z,16.20
2018-12-11T03:29:36.461Z,14.53
2018-12-11T03:32:03.946Z,12.10
2018-12-11T03:37:08.665Z,12.20
2018-12-11T03:39:36.072Z,13.50
2018-12-11T03:42:03.541Z,9.70
2018-12-11T03:44:30.946Z,8.47
2018-12-11T03:46:58.341Z,10.80
2018-12-11T03:49:25.807Z,16.60
2018-12-11T03:51:53.209Z,11.17
2018-12-11T03:54:20.633Z,7.20
2018-12-11T03:56:48.017Z,9.47
2018-12-11T03:59:15.451Z,4.93
2018-12-11T04:01:42.955Z,13.07
2018-12-11T04:04:10.363Z,7.20
2018-12-11T04:06:37.741Z,8.00
2018-12-11T04:09:06.145Z,8.80
2018-12-11T04:11:33.529Z,7.53
2018-12-11T04:14:01.013Z,9.50
2018-12-11T04:16:28.417Z,5.77
2018-12-11T04:18:55.862Z,14.20
2018-12-11T04:21:23.242Z,5.87
2018-12-11T04:23:50.724Z,8.57
2018-12-11T04:26:18.197Z,10.00
2018-12-11T04:28:45.619Z,11.73
2018-12-11T04:31:12.998Z,9.13
2018-12-11T04:33:40.374Z,9.57
2018-12-11T04:36:07.846Z,6.53
2018-12-11T04:38:35.233Z,6.93
2018-12-11T04:41:02.609Z,12.17
2018-12-11T04:43:29.998Z,9.80
2018-12-11T04:45:57.390Z,10.13
2018-12-11T04:48:24.778Z,13.57
2018-12-11T04:50:52.266Z,8.67
2018-12-11T04:53:19.661Z,9.87
2018-12-11T04:55:47.064Z,13.70
2018-12-11T04:58:14.456Z,11.27
2018-12-11T05:00:41.858Z,13.50
2018-12-11T05:03:09.245Z,18.73
2018-12-11T05:05:36.622Z,8.13
2018-12-11T05:08:06.134Z,11.20
2018-12-11T05:10:33.509Z,12.07
2018-12-11T05:13:00.897Z,14.83
2018-12-11T05:15:28.289Z,11.50
2018-12-11T05:17:55.689Z,9.33
2018-12-11T05:20:23.081Z,12.07
2018-12-11T05:22:50.461Z,11.30
2018-12-11T05:25:17.867Z,16.00
2018-12-11T05:27:45.261Z,11.63
2018-12-11T05:30:12.682Z,11.63
2018-12-11T05:32:40.106Z,14.23
2018-12-11T05:35:07.834Z,17.23
2018-12-11T05:37:35.239Z,9.57
2018-12-11T05:40:02.611Z,7.47
2018-12-11T05:42:30.029Z,12.03
2018-12-11T05:44:57.414Z,10.70
2018-12-11T05:47:24.818Z,9.07
2018-12-11T05:49:52.202Z,12.10
2018-12-11T05:52:19.574Z,15.00
2018-12-11T05:54:46.969Z,12.60
2018-12-11T05:57:14.363Z,16.27
2018-12-11T05:59:41.750Z,11.30
2018-12-11T06:02:09.139Z,18.60
2018-12-11T06:04:36.607Z,11.80
2018-12-11T06:07:04.018Z,12.40
2018-12-11T06:09:31.405Z,15.00
2018-12-11T06:11:58.810Z,18.47
2018-12-11T06:14:26.191Z,8.50
2018-12-11T06:16:53.667Z,11.40
2018-12-11T06:19:21.083Z,13.23
2018-12-11T06:21:48.560Z,13.17
2018-12-11T06:24:15.945Z,11.73
2018-12-11T06:26:43.341Z,10.07
2018-12-11T06:32:08.709Z,11.80
2018-12-11T06:34:36.551Z,13.50
2018-12-11T06:37:03.938Z,11.30
2018-12-11T06:39:31.365Z,12.67
2018-12-11T06:41:58.766Z,11.33
2018-12-11T06:44:26.193Z,16.63
2018-12-11T06:46:53.565Z,18.10
2018-12-11T06:49:20.990Z,12.43
2018-12-11T06:51:48.381Z,10.83
2018-12-11T06:54:15.770Z,11.13
2018-12-11T06:56:43.185Z,18.07
2018-12-11T06:59:10.613Z,14.70
2018-12-11T07:01:38.015Z,14.87
2018-12-11T07:04:05.439Z,16.57
2018-12-11T07:06:32.929Z,13.00
2018-12-11T07:09:00.405Z,11.13
2018-12-11T07:11:28.521Z,19.50
2018-12-11T07:13:56.011Z,15.33
2018-12-11T07:16:23.446Z,12.50
2018-12-11T07:18:50.821Z,14.43
2018-12-11T07:21:18.204Z,11.80
2018-12-11T07:23:45.697Z,13.70
2018-12-11T07:26:13.090Z,18.57
2018-12-11T07:28:40.511Z,13.17
2018-12-11T07:31:07.935Z,10.07
2018-12-11T07:33:35.397Z,10.80
2018-12-11T07:36:02.850Z,13.37
2018-12-11T07:38:30.264Z,18.23
2018-12-11T07:40:57.765Z,12.40
2018-12-11T07:43:25.185Z,12.07
2018-12-11T07:45:52.605Z,9.57
2018-12-11T07:48:19.983Z,11.60
2018-12-11T07:50:47.388Z,13.37
2018-12-11T07:53:14.781Z,12.70
2018-12-11T07:55:42.260Z,15.57
2018-12-11T07:58:09.628Z,13.30
2018-12-11T08:00:37.079Z,12.10
2018-12-11T08:03:04.456Z,10.57
2018-12-11T08:05:31.919Z,12.10
2018-12-11T08:07:59.378Z,10.40
2018-12-11T08:10:26.798Z,13.10
2018-12-11T08:12:54.283Z,9.93
2018-12-11T08:15:21.697Z,13.23
2018-12-11T08:17:49.072Z,14.40
2018-12-11T08:20:16.571Z,11.60
2018-12-11T08:22:43.976Z,10.73
2018-12-11T08:25:11.358Z,14.20
2018-12-11T08:27:38.768Z,13.57
2018-12-11T08:30:06.708Z,10.03
2018-12-11T08:32:34.086Z,13.40
2018-12-11T08:35:01.487Z,14.77
2018-12-11T08:37:28.871Z,12.20
2018-12-11T08:39:56.276Z,14.67
2018-12-11T08:42:23.660Z,12.40
2018-12-11T08:44:51.453Z,10.07
2018-12-11T08:47:24.708Z,11.43
2018-12-11T08:49:52.179Z,10.23
2018-12-11T08:52:19.598Z,16.73
2018-12-11T08:54:47.063Z,9.10
2018-12-11T08:57:14.460Z,12.03
2018-12-11T08:59:41.852Z,10.23
2018-12-11T09:02:09.241Z,15.90
2018-12-11T09:04:36.626Z,10.07
2018-12-11T09:07:04.035Z,12.37
2018-12-11T09:09:31.461Z,11.20
2018-12-11T09:11:58.897Z,9.77
2018-12-11T09:14:26.274Z,9.83
2018-12-11T09:16:53.681Z,11.57
2018-12-11T09:19:21.071Z,11.87
2018-12-11T09:21:48.470Z,8.10
2018-12-11T09:24:15.861Z,8.30
2018-12-11T09:26:43.272Z,12.80
2018-12-11T09:29:10.731Z,9.37
2018-12-11T09:31:38.121Z,10.33
2018-12-11T09:34:05.530Z,8.77
2018-12-11T09:36:33.743Z,10.17
2018-12-11T09:39:01.126Z,8.07
2018-12-11T09:41:28.520Z,10.13
2018-12-11T09:43:56.023Z,12.63
2018-12-11T09:46:23.749Z,11.23
2018-12-11T09:48:51.135Z,10.90
2018-12-11T09:51:18.536Z,13.57
2018-12-11T09:53:45.938Z,9.57
2018-12-11T09:56:13.346Z,9.23
2018-12-11T09:58:40.749Z,10.70
2018-12-11T10:01:08.122Z,10.13
2018-12-11T10:03:35.633Z,6.57
2018-12-11T10:06:03.030Z,7.10
2018-12-11T10:08:30.418Z,7.77
2018-12-11T10:10:57.836Z,7.30
2018-12-11T10:13:25.241Z,6.47
2018-12-11T10:15:52.642Z,5.80
2018-12-11T10:18:20.049Z,10.47
2018-12-11T10:20:47.451Z,7.93
2018-12-11T10:23:15.465Z,6.50
2018-12-11T10:25:42.881Z,3.97
2018-12-11T10:28:10.276Z,4.80
2018-12-11T10:30:50.105Z,7.90
2018-12-11T10:33:17.567Z,5.40
2018-12-11T10:35:44.958Z,5.33
2018-12-11T10:38:12.345Z,4.40
2018-12-11T10:40:39.753Z,4.47
2018-12-11T10:43:07.230Z,6.27
2018-12-11T10:45:34.619Z,3.67
2018-12-11T10:48:02.048Z,5.13
2018-12-11T10:50:29.441Z,3.43
2018-12-11T10:52:56.888Z,4.10
2018-12-11T10:55:24.265Z,5.90
2018-12-11T10:57:51.676Z,6.63
2018-12-11T11:00:24.469Z,5.27
2018-12-11T11:02:57.400Z,4.60
2018-12-11T11:05:24.808Z,5.37
2018-12-11T11:07:52.277Z,4.70
2018-12-11T11:10:19.689Z,6.47
2018-12-11T11:12:47.148Z,4.27
2018-12-11T11:15:14.685Z,3.57
2018-12-11T11:17:42.188Z,3.93
2018-12-11T11:20:09.565Z,4.73
2018-12-11T11:22:36.968Z,4.50
2018-12-11T11:25:06.101Z,5.30
2018-12-11T11:27:33.533Z,6.23
2018-12-11T11:30:00.948Z,9.17
2018-12-11T11:32:28.309Z,4.80
2018-12-11T11:34:55.693Z,4.50
2018-12-11T11:37:23.109Z,5.37
2018-12-11T11:39:50.521Z,6.17
2018-12-11T11:42:19.065Z,4.93
2018-12-11T11:44:46.722Z,6.07
2018-12-11T11:47:14.205Z,5.03
2018-12-11T11:49:41.596Z,4.17
2018-12-11T11:52:09.045Z,4.83
2018-12-11T11:54:36.424Z,4.30
2018-12-11T11:57:03.823Z,4.30
2018-12-11T11:59:31.332Z,4.80
2018-12-11T12:01:58.768Z,6.03
2018-12-11T12:04:26.162Z,3.93
2018-12-11T12:06:53.630Z,3.50
2018-12-11T12:09:21.066Z,3.87
2018-12-11T12:11:48.473Z,4.97
2018-12-11T12:14:15.884Z,3.97
2018-12-11T12:16:43.307Z,5.40
2018-12-11T12:19:10.708Z,6.50
2018-12-11T12:21:38.105Z,5.27
2018-12-11T12:24:05.548Z,7.33
2018-12-11T12:26:32.937Z,4.70
2018-12-11T12:29:00.411Z,6.13
2018-12-11T12:31:28.151Z,4.93
2018-12-11T12:33:55.554Z,3.83
2018-12-11T12:36:23.001Z,4.03
2018-12-11T12:38:50.454Z,4.40
2018-12-11T12:41:17.836Z,5.90
2018-12-11T12:43:45.313Z,5.73
2018-12-11T12:46:12.709Z,3.70
2018-12-11T12:48:40.090Z,3.30
2018-12-11T12:51:07.474Z,4.80
2018-12-11T12:53:34.869Z,3.87
2018-12-11T12:56:02.379Z,8.43
2018-12-11T12:58:29.773Z,5.73
2018-12-11T13:01:01.276Z,5.20
2018-12-11T13:03:34.729Z,8.43
2018-12-11T13:06:02.226Z,6.10
2018-12-11T13:08:30.817Z,4.40
2018-12-11T13:10:58.974Z,5.90
2018-12-11T13:13:26.388Z,6.60
2018-12-11T13:15:53.839Z,4.90
2018-12-11T13:18:21.220Z,4.50
2018-12-11T13:20:48.608Z,5.33
2018-12-11T13:23:16.005Z,6.30
2018-12-11T13:25:43.421Z,5.17
2018-12-11T13:28:10.808Z,5.13
2018-12-11T13:30:38.199Z,3.90
2018-12-11T13:33:05.673Z,4.37
2018-12-11T13:35:33.081Z,7.90
2018-12-11T13:38:00.483Z,6.77
2018-12-11T13:40:28.128Z,9.00
2018-12-11T13:42:55.586Z,12.60
2018-12-11T13:45:22.993Z,5.23
2018-12-11T13:47:50.476Z,7.93
2018-12-11T13:50:17.963Z,6.83
2018-12-11T13:52:45.366Z,6.00
2018-12-11T13:55:12.768Z,6.83
2018-12-11T13:57:40.250Z,6.50
2018-12-11T14:00:08.001Z,6.63
2018-12-11T14:02:35.397Z,8.90
2018-12-11T14:05:02.869Z,6.50
2018-12-11T14:07:30.302Z,8.90
2018-12-11T14:09:57.709Z,7.43
2018-12-11T14:12:25.192Z,8.20
2018-12-11T14:14:52.700Z,5.00
2018-12-11T14:17:20.158Z,11.17
2018-12-11T14:19:47.533Z,7.43
2018-12-11T14:22:14.939Z,8.60
2018-12-11T14:24:42.344Z,7.67
2018-12-11T14:27:09.737Z,6.93
2018-12-11T14:29:37.134Z,5.43
2018-12-11T14:32:04.698Z,6.10
2018-12-11T14:34:32.110Z,5.00
2018-12-11T14:36:59.574Z,3.87
2018-12-11T14:39:26.955Z,4.83
2018-12-11T14:41:54.369Z,5.40
2018-12-11T14:44:21.767Z,7.20
2018-12-11T14:46:49.177Z,6.40
2018-12-11T14:49:16.590Z,5.30
2018-12-11T14:51:43.987Z,10.23
2018-12-11T14:54:17.185Z,5.47
2018-12-11T14:56:48.599Z,3.90
2018-12-11T14:59:17.301Z,3.37
2018-12-11T15:01:44.719Z,6.53
2018-12-11T15:04:12.121Z,4.80
2018-12-11T15:06:39.505Z,4.60
2018-12-11T15:09:12.904Z,4.00
2018-12-11T15:11:40.401Z,2.40
2018-12-11T15:14:07.802Z,5.60
2018-12-11T15:16:35.878Z,5.40
2018-12-11T15:19:03.366Z,3.17
2018-12-11T15:21:30.765Z,3.10
2018-12-11T15:24:02.199Z,2.07
2018-12-11T15:26:29.751Z,3.60
2018-12-11T15:28:57.133Z,4.50
2018-12-11T15:31:24.522Z,3.10
2018-12-11T15:33:51.911Z,3.43
2018-12-11T15:36:19.316Z,3.40
2018-12-11T15:38:46.713Z,3.23
2018-12-11T15:41:14.093Z,4.27
2018-12-11T15:43:41.492Z,2.93
2018-12-11T15:46:08.899Z,3.63
2018-12-11T15:48:36.281Z,3.23
2018-12-11T15:51:03.681Z,3.30
2018-12-11T15:53:31.074Z,3.40
2018-12-11T15:55:58.488Z,5.50
2018-12-11T15:58:25.960Z,6.53
2018-12-11T16:00:53.341Z,5.20
2018-12-11T16:03:20.756Z,4.13
2018-12-11T16:05:48.168Z,6.67
2018-12-11T16:08:15.575Z,4.60
2018-12-11T16:10:42.980Z,5.60
2018-12-11T16:13:11.346Z,3.37
2018-12-11T16:15:38.746Z,5.40
2018-12-11T16:18:06.127Z,3.73
2018-12-11T16:20:33.515Z,3.60
2018-12-11T16:23:00.913Z,3.43
2018-12-11T16:25:28.323Z,3.60
2018-12-11T16:30:34.071Z,3.00
2018-12-11T16:33:01.483Z,3.93
2018-12-11T16:35:28.883Z,5.60
2018-12-11T16:37:56.334Z,5.00
2018-12-11T16:40:23.714Z,5.60
2018-12-11T16:42:51.350Z,5.60
2018-12-11T16:45:18.734Z,5.17
2018-12-11T16:47:46.210Z,5.60
2018-12-11T16:50:13.589Z,5.10
2018-12-11T16:52:41.035Z,5.00
2018-12-11T16:55:08.508Z,5.20
2018-12-11T16:57:35.930Z,5.20
2018-12-11T17:00:05.356Z,7.20
2018-12-11T17:02:32.763Z,6.70
2018-12-11T17:05:00.193Z,8.87
2018-12-11T17:07:27.587Z,8.30
2018-12-11T17:09:55.004Z,6.77
2018-12-11T17:12:22.557Z,6.80
2018-12-11T17:14:49.971Z,6.30
2018-12-11T17:17:17.474Z,6.90
2018-12-11T17:19:44.874Z,6.20
2018-12-11T17:22:12.266Z,5.67
2018-12-11T17:24:39.692Z,8.07
2018-12-11T17:27:07.121Z,6.80
2018-12-11T17:29:34.623Z,6.87
2018-12-11T17:32:02.172Z,7.30
2018-12-11T17:34:29.568Z,9.40
2018-12-11T17:36:56.970Z,9.90
2018-12-11T17:39:24.374Z,8.07
2018-12-11T17:41:51.910Z,9.47
2018-12-11T17:44:19.335Z,9.27
2018-12-11T17:46:58.155Z,9.07
2018-12-11T17:49:40.580Z,11.07
2018-12-11T17:52:08.080Z,11.40
2018-12-11T17:54:35.571Z,10.00
2018-12-11T17:57:03.964Z,7.73
2018-12-11T17:59:31.571Z,7.30
2018-12-11T18:01:59.768Z,7.87
2018-12-11T18:04:27.231Z,8.30
2018-12-11T18:06:54.702Z,7.50
2018-12-11T18:09:22.454Z,7.40
2018-12-11T18:11:49.848Z,7.23
2018-12-11T18:14:17.318Z,7.83
2018-12-11T18:16:44.737Z,6.93
2018-12-11T18:19:12.399Z,6.80
2018-12-11T18:21:39.960Z,10.07
2018-12-11T18:24:07.343Z,8.63
2018-12-11T18:26:34.740Z,9.37
2018-12-11T18:29:02.173Z,6.60
2018-12-11T18:31:29.562Z,6.63
2018-12-11T18:33:56.989Z,8.00
2018-12-11T18:36:24.477Z,7.60
2018-12-11T18:38:52.369Z,7.47
2018-12-11T18:41:19.908Z,7.13
2018-12-11T18:43:47.925Z,12.90
2018-12-11T18:46:15.351Z,7.63
2018-12-11T18:48:42.870Z,7.93
2018-12-11T18:51:10.307Z,7.50
2018-12-11T18:53:37.711Z,8.50
2018-12-11T18:56:06.920Z,7.20
2018-12-11T18:58:34.507Z,9.70
2018-12-11T19:01:02.024Z,8.33
2018-12-11T19:03:29.402Z,8.63
2018-12-11T19:05:57.064Z,10.00
2018-12-11T19:08:24.520Z,8.97
2018-12-11T19:10:51.971Z,8.07
2018-12-11T19:13:19.370Z,13.90
2018-12-11T19:15:46.845Z,6.87
2018-12-11T19:18:14.331Z,9.77
2018-12-11T19:20:41.781Z,8.30
2018-12-11T19:23:13.133Z,7.67
2018-12-11T19:25:40.530Z,9.37
2018-12-11T19:28:07.959Z,9.80
2018-12-11T19:30:35.418Z,8.73
2018-12-11T19:33:02.905Z,8.57
2018-12-11T19:35:33.174Z,8.30
2018-12-11T19:37:59.748Z,7.23
2018-12-11T19:40:27.289Z,8.97
2018-12-11T19:42:54.714Z,8.60
2018-12-11T19:45:22.102Z,8.60
2018-12-11T19:47:49.522Z,7.17
2018-12-11T19:50:16.962Z,13.33
2018-12-11T19:52:44.447Z,10.57
2018-12-11T19:55:11.883Z,8.13
2018-12-11T19:57:39.291Z,8.13
2018-12-11T20:00:08.620Z,11.30
2018-12-11T20:02:36.011Z,7.63
2018-12-11T20:05:04.083Z,8.33
2018-12-11T20:07:31.513Z,8.97
2018-12-11T20:10:04.577Z,9.67
2018-12-11T20:12:32.001Z,9.93
2018-12-11T20:15:04.674Z,8.23
2018-12-11T20:17:28.931Z,10.27
2018-12-11T20:19:56.454Z,9.13
2018-12-11T20:22:23.964Z,7.37
2018-12-11T20:24:51.358Z,7.77
2018-12-11T20:27:18.776Z,7.80
2018-12-11T20:29:46.175Z,8.00
2018-12-11T20:32:13.574Z,7.90
2018-12-11T20:34:40.982Z,8.07
2018-12-11T20:37:08.783Z,8.60
2018-12-11T20:39:36.179Z,7.30
2018-12-11T20:42:03.573Z,7.93
2018-12-11T20:44:30.944Z,6.70
2018-12-11T20:46:58.355Z,8.63
2018-12-11T20:49:25.797Z,10.00
2018-12-11T20:51:53.209Z,8.27
2018-12-11T20:54:20.669Z,9.67
2018-12-11T20:56:48.101Z,8.87
2018-12-11T20:59:18.611Z,7.90
2018-12-11T21:01:47.195Z,9.03
2018-12-11T21:04:14.837Z,9.27
2018-12-11T21:06:42.579Z,7.53
2018-12-11T21:09:12.209Z,9.60
2018-12-11T21:11:39.634Z,8.63
2018-12-11T21:14:08.765Z,9.73
2018-12-11T21:16:36.397Z,9.50
2018-12-11T21:19:04.243Z,10.53
2018-12-11T21:21:31.972Z,7.90
2018-12-11T21:23:59.636Z,9.63
2018-12-11T21:26:27.064Z,9.47
2018-12-11T21:28:54.468Z,10.20
2018-12-11T21:31:21.841Z,10.10
2018-12-11T21:33:49.262Z,10.80
2018-12-11T21:36:16.673Z,9.33
2018-12-11T21:38:44.111Z,8.73
2018-12-11T21:41:11.513Z,9.30
2018-12-11T21:43:38.906Z,9.57
2018-12-11T21:46:06.323Z,10.67
2018-12-11T21:48:33.781Z,13.60
2018-12-11T21:51:01.169Z,10.07
2018-12-11T21:53:28.572Z,9.83
2018-12-11T21:55:56.966Z,12.80
2018-12-11T21:58:24.345Z,10.70
2018-12-11T22:00:52.320Z,11.00
2018-12-11T22:03:20.135Z,13.87
2018-12-11T22:05:49.060Z,12.73
2018-12-11T22:08:16.684Z,12.87
2018-12-11T22:10:44.091Z,13.50
2018-12-11T22:13:11.514Z,14.87
2018-12-11T22:15:38.918Z,12.40
2018-12-11T22:18:06.331Z,12.20
2018-12-11T22:20:33.706Z,12.53
2018-12-11T22:23:01.137Z,13.97
2018-12-11T22:25:28.510Z,12.80
2018-12-11T22:27:55.966Z,15.27
2018-12-11T22:30:23.388Z,14.57
2018-12-11T22:32:50.813Z,15.50
2018-12-11T22:35:18.256Z,15.20
2018-12-11T22:37:45.648Z,14.07
2018-12-11T22:40:13.064Z,15.90
2018-12-11T22:42:40.463Z,14.27
2018-12-11T22:45:07.900Z,17.43
2018-12-11T22:47:35.343Z,16.20
2018-12-11T22:50:03.741Z,15.90
2018-12-11T22:52:31.174Z,14.67
2018-12-11T22:54:58.644Z,17.00
2018-12-11T22:57:26.079Z,15.37
2018-12-11T22:59:53.537Z,16.70
2018-12-11T23:02:20.949Z,16.80
2018-12-11T23:04:48.410Z,18.73
2018-12-11T23:07:15.860Z,15.23
2018-12-11T23:09:44.539Z,16.87
2018-12-11T23:12:12.026Z,15.17
2018-12-11T23:14:39.451Z,16.90
2018-12-11T23:17:08.042Z,15.60
2018-12-11T23:19:35.431Z,19.80
2018-12-11T23:22:02.874Z,17.73
2018-12-11T23:24:30.259Z,16.77
2018-12-11T23:26:57.776Z,18.43
2018-12-11T23:29:25.243Z,18.30
2018-12-11T23:31:52.688Z,16.43
2018-12-11T23:34:20.096Z,17.23
2018-12-11T23:36:47.478Z,17.30
2018-12-11T23:39:14.896Z,17.30
2018-12-11T23:41:42.394Z,19.00
2018-12-11T23:44:09.816Z,17.30
2018-12-11T23:46:37.230Z,21.33
2018-12-11T23:49:04.639Z,17.83
2018-12-11T23:51:32.147Z,17.10
2018-12-11T23:53:59.560Z,18.83
2018-12-11T23:56:26.965Z,18.33
2018-12-11T23:58:54.407Z,21.90
